Time;durP1;ratioP1;P1;durP2;ratioP2;P2;SDS_P1;SDS_P2;PMS_P1;PMS_P2;Temp;Humidity;BMP_temperature;BMP_pressure;BME280_temperature;BME280_humidity;BME280_pressure;Samples;Min_cycle;Max_cycle;Signal;HPM_P1;HPM_P2
2021/03/23 00:00:28;;;;;;;;;;;;;;;21.86;39.45;102328.19;3110749;27;113686;-58
2021/03/23 00:02:00;;;;;;;;;;;;;;;21.85;39.51;102328.50;3100124;27;113791;-59
2021/03/23 00:03:34;;;;;;;;;;;;;;;21.84;39.50;102326.81;3097395;28;113915;-58
2021/03/23 00:05:08;;;;;;;;;;;;;;;21.83;39.49;102328.78;3111844;27;113986;-58
2021/03/23 00:06:43;;;;;;;;;;;;;;;21.83;39.58;102330.75;3101763;27;114212;-58
2021/03/23 00:08:24;;;;;;;;;;;;;;;21.82;39.77;102329.06;3091935;28;115388;-60
2021/03/23 00:09:59;;;;;;;;;;;;;;;21.81;39.96;102332.97;3088239;28;114200;-60
2021/03/23 00:11:33;;;;;;;;;;;;;;;21.79;39.78;102329.63;3114201;27;115186;-59
2021/03/23 00:13:04;;;;;;;;;;;;;;;21.78;39.82;102325.97;3103621;27;114630;-59
2021/03/23 00:14:36;;;;;;;;;;;;;;;21.77;39.91;102331.88;3110167;27;115076;-58
2021/03/23 00:16:09;;;;;;;;;;;;;;;21.76;40.05;102335.84;3103740;27;114979;-60
2021/03/23 00:17:42;;;;;;;;;;;;;;;21.73;39.95;102329.63;3090270;28;115374;-59
2021/03/23 00:19:15;;;;;;;;;;;;;;;21.73;40.28;102332.44;3081983;28;114375;-59
2021/03/23 00:20:47;;;;;;;;;;;;;;;21.74;40.52;102331.31;3115343;27;115848;-58
2021/03/23 00:22:19;;;;;;;;;;;;;;;21.73;40.13;102329.63;3099168;27;115143;-57
2021/03/23 00:23:51;;;;;;;;;;;;;;;21.73;40.14;102331.59;3091313;28;114179;-57
2021/03/23 00:25:23;;;;;;;;;;;;;;;21.72;40.47;102319.50;3112921;27;115203;-60
2021/03/23 00:26:54;;;;;;;;;;;;;;;21.71;40.38;102329.06;3102580;27;117066;-60
2021/03/23 00:28:26;;;;;;;;;;;;;;;21.70;40.38;102326.53;3089325;28;114795;-57
2021/03/23 00:29:59;;;;;;;;;;;;;;;21.68;40.44;102332.44;3088341;28;113866;-60
2021/03/23 00:31:31;;;;;;;;;;;;;;;21.68;40.66;102323.16;3089570;28;114067;-58
2021/03/23 00:33:04;;;;;;;;;;;;;;;21.67;40.35;102322.31;3114429;27;115202;-58
2021/03/23 00:34:42;;;;;;;;;;;;;;;21.67;40.69;102330.75;3096600;27;114703;-58
2021/03/23 00:36:19;;;;;;;;;;;;;;;21.65;40.76;102320.91;3088033;28;115887;-59
2021/03/23 00:37:54;;;;;;;;;;;;;;;21.65;40.86;102335.00;3115812;27;115802;-58
2021/03/23 00:39:25;;;;;;;;;;;;;;;21.65;40.77;102324.59;3102241;27;116049;-60
2021/03/23 00:40:57;;;;;;;;;;;;;;;21.65;40.26;102324.59;3087909;28;115899;-59
2021/03/23 00:42:29;;;;;;;;;;;;;;;21.63;40.47;102325.97;3086976;28;114892;-61
2021/03/23 00:44:04;;;;;;;;;;;;;;;21.63;40.54;102324.00;3085797;28;114854;-58
2021/03/23 00:45:40;;;;;;;;;;;;;;;21.63;40.13;102325.97;3088908;28;114947;-61
2021/03/23 00:47:14;;;;;;;;;;;;;;;21.63;40.60;102320.34;3099301;28;114672;-58
2021/03/23 00:48:47;;;;;;;;;;;;;;;21.61;40.59;102317.00;3112983;27;115569;-58
2021/03/23 00:50:19;;;;;;;;;;;;;;;21.62;40.54;102315.88;3092917;27;114924;-59
2021/03/23 00:51:52;;;;;;;;;;;;;;;21.60;40.55;102318.97;3088441;28;116770;-59
2021/03/23 00:53:24;;;;;;;;;;;;;;;21.58;40.27;102318.38;3097968;28;116570;-60
2021/03/23 00:54:56;;;;;;;;;;;;;;;21.58;40.56;102312.75;3114107;27;114141;-59
2021/03/23 00:56:28;;;;;;;;;;;;;;;21.57;40.61;102319.53;3096609;27;113668;-58
2021/03/23 00:58:00;;;;;;;;;;;;;;;21.57;40.14;102318.69;3107328;27;114027;-59
2021/03/23 00:59:31;;;;;;;;;;;;;;;21.56;40.20;102317.84;3102112;27;114397;-61
2021/03/23 01:01:03;;;;;;;;;;;;;;;21.56;40.29;102319.81;3090040;28;113722;-58
2021/03/23 01:02:35;;;;;;;;;;;;;;;21.56;39.86;102314.19;3098066;28;113941;-59
2021/03/23 01:04:07;;;;;;;;;;;;;;;21.55;39.73;102309.69;3088790;28;113802;-60
2021/03/23 01:05:40;;;;;;;;;;;;;;;21.52;40.38;102308.28;3086862;28;113869;-56
2021/03/23 01:07:12;;;;;;;;;;;;;;;21.53;39.82;102314.75;3083452;28;113707;-60
2021/03/23 01:08:44;;;;;;;;;;;;;;;21.50;40.10;102318.09;3097872;28;113646;-59
2021/03/23 01:10:17;;;;;;;;;;;;;;;21.54;39.13;102310.78;3087669;28;113902;-60
2021/03/23 01:11:49;;;;;;;;;;;;;;;21.51;39.74;102308.56;3110655;27;113888;-59
2021/03/23 01:13:21;;;;;;;;;;;;;;;21.51;40.05;102312.22;3084173;28;113784;-58
2021/03/23 01:14:53;;;;;;;;;;;;;;;21.47;40.26;102308.28;3083166;28;114146;-58
2021/03/23 01:16:24;;;;;;;;;;;;;;;21.47;40.10;102308.28;3102083;28;114212;-58
2021/03/23 01:17:56;;;;;;;;;;;;;;;21.46;39.86;102303.78;3090780;28;114961;-59
2021/03/23 01:19:27;;;;;;;;;;;;;;;21.47;40.18;102307.44;3090845;28;115087;-59
2021/03/23 01:20:58;;;;;;;;;;;;;;;21.46;39.85;102302.94;3095139;28;115015;-59
2021/03/23 01:22:29;;;;;;;;;;;;;;;21.44;39.93;102297.56;3090021;28;115377;-58
2021/03/23 01:24:00;;;;;;;;;;;;;;;21.44;39.76;102305.19;3088466;28;114427;-58
2021/03/23 01:25:31;;;;;;;;;;;;;;;21.42;40.23;102296.19;3085893;28;115609;-58
2021/03/23 01:27:03;;;;;;;;;;;;;;;21.42;40.00;102299.84;3095813;28;115042;-58
2021/03/23 01:28:34;;;;;;;;;;;;;;;21.41;40.04;102300.13;3083019;28;115103;-58
2021/03/23 01:30:06;;;;;;;;;;;;;;;21.37;39.74;102305.47;3088595;28;114391;-60
2021/03/23 01:31:37;;;;;;;;;;;;;;;21.37;40.09;102299.84;3089429;28;115190;-61
2021/03/23 01:33:08;;;;;;;;;;;;;;;21.35;40.19;102293.63;3115121;27;115156;-59
2021/03/23 01:34:40;;;;;;;;;;;;;;;21.34;40.23;102299.56;3094078;27;114079;-61
2021/03/23 01:36:11;;;;;;;;;;;;;;;21.37;40.05;102293.38;3111405;27;115034;-60
2021/03/23 01:37:42;;;;;;;;;;;;;;;21.32;40.12;102299.84;3096431;27;114468;-58
2021/03/23 01:39:13;;;;;;;;;;;;;;;21.32;39.93;102294.22;3092309;28;114942;-57
2021/03/23 01:40:44;;;;;;;;;;;;;;;21.32;40.05;102291.41;3084554;28;117583;-59
2021/03/23 01:42:16;;;;;;;;;;;;;;;21.34;40.43;102289.16;3107044;27;115989;-61
2021/03/23 01:43:48;;;;;;;;;;;;;;;21.33;40.06;102286.63;3094150;28;115776;-58
2021/03/23 01:45:21;;;;;;;;;;;;;;;21.29;40.53;102286.34;3105706;28;114606;-58
2021/03/23 01:46:52;;;;;;;;;;;;;;;21.29;40.36;102286.34;3092677;28;116143;-58
2021/03/23 01:48:26;;;;;;;;;;;;;;;21.28;40.13;102287.47;3087953;28;115913;-59
2021/03/23 01:49:58;;;;;;;;;;;;;;;21.28;40.32;102284.66;3097156;28;116137;-57
2021/03/23 01:51:29;;;;;;;;;;;;;;;21.26;40.30;102284.09;3097978;28;116207;-58
2021/03/23 01:53:06;;;;;;;;;;;;;;;21.25;40.47;102276.78;3090088;28;115933;-59
2021/03/23 01:54:40;;;;;;;;;;;;;;;21.26;40.20;102281.28;3109239;27;115910;-59
2021/03/23 01:56:12;;;;;;;;;;;;;;;21.23;40.55;102282.69;3093332;28;115630;-60
2021/03/23 01:57:45;;;;;;;;;;;;;;;21.21;40.40;102278.50;3109851;27;114529;-59
2021/03/23 01:59:18;;;;;;;;;;;;;;;21.21;40.45;102276.50;3096947;28;115870;-61
2021/03/23 02:00:49;;;;;;;;;;;;;;;21.21;40.36;102272.88;3084879;28;113644;-58
2021/03/23 02:02:22;;;;;;;;;;;;;;;21.19;40.31;102281.56;3086496;28;113824;-60
2021/03/23 02:04:08;;;;;;;;;;;;;;;21.19;40.37;102280.72;3113599;27;113847;-60
2021/03/23 02:05:39;;;;;;;;;;;;;;;21.18;40.69;102285.50;3091031;28;114110;-57
2021/03/23 02:07:10;;;;;;;;;;;;;;;21.16;40.46;102282.13;3086514;28;113864;-60
2021/03/23 02:08:41;;;;;;;;;;;;;;;21.16;40.54;102279.34;3096693;28;114237;-58
2021/03/23 02:10:12;;;;;;;;;;;;;;;21.17;40.60;102286.63;3093606;28;113902;-60
2021/03/23 02:11:45;;;;;;;;;;;;;;;21.16;40.70;102281.28;3081305;28;113973;-58
2021/03/23 02:13:16;;;;;;;;;;;;;;;21.16;40.30;102279.34;3084828;28;113954;-57
2021/03/23 02:14:48;;;;;;;;;;;;;;;21.16;40.38;102276.53;3091232;28;114213;-59
2021/03/23 02:16:19;;;;;;;;;;;;;;;21.16;40.67;102284.09;3098273;28;113810;-57
2021/03/23 02:18:00;;;;;;;;;;;;;;;21.14;40.41;102273.13;3113587;27;114071;-58
2021/03/23 02:19:31;;;;;;;;;;;;;;;21.16;40.38;102281.28;3102744;27;113919;-60
2021/03/23 02:21:07;;;;;;;;;;;;;;;21.13;40.62;102279.03;3088129;28;113849;-61
2021/03/23 02:22:39;;;;;;;;;;;;;;;21.13;40.57;102281.84;3086078;28;115076;-59
2021/03/23 02:24:12;;;;;;;;;;;;;;;21.14;40.37;102275.09;3092052;28;114034;-57
2021/03/23 02:25:43;;;;;;;;;;;;;;;21.13;40.38;102276.22;3083907;28;115161;-60
2021/03/23 02:27:14;;;;;;;;;;;;;;;21.12;40.42;102271.72;3085749;28;115655;-60
2021/03/23 02:28:52;;;;;;;;;;;;;;;21.12;40.19;102272.53;3086322;28;114976;-60
2021/03/23 02:30:28;;;;;;;;;;;;;;;21.09;40.21;102272.25;3122794;27;114984;-59
2021/03/23 02:32:00;;;;;;;;;;;;;;;21.09;40.42;102273.09;3076456;28;115019;-59
2021/03/23 02:33:32;;;;;;;;;;;;;;;21.08;40.57;102277.03;3086447;28;115465;-60
2021/03/23 02:35:04;;;;;;;;;;;;;;;21.08;40.46;102273.38;3087933;28;115391;-60
2021/03/23 02:36:35;;;;;;;;;;;;;;;21.06;40.53;102279.28;3097291;28;118075;-58
2021/03/23 02:38:06;;;;;;;;;;;;;;;21.05;40.60;102274.78;3108863;27;115059;-60
2021/03/23 02:39:37;;;;;;;;;;;;;;;21.06;40.68;102270.84;3100798;28;116166;-59
2021/03/23 02:41:08;;;;;;;;;;;;;;;21.04;40.44;102267.47;3109200;27;118797;-57
2021/03/23 02:42:39;;;;;;;;;;;;;;;21.01;40.59;102265.22;3096262;28;115045;-58
2021/03/23 02:44:11;;;;;;;;;;;;;;;21.03;40.21;102265.78;3086148;28;115808;-60
2021/03/23 02:45:51;;;;;;;;;;;;;;;21.01;40.42;102259.59;3113488;27;116358;-58
2021/03/23 02:47:22;;;;;;;;;;;;;;;21.01;40.15;102261.56;3083573;28;116104;-60
2021/03/23 02:48:54;;;;;;;;;;;;;;;20.99;40.44;102266.59;3073418;28;115714;-59
2021/03/23 02:50:25;;;;;;;;;;;;;;;20.97;40.27;102261.28;3096515;28;116573;-58
2021/03/23 02:51:56;;;;;;;;;;;;;;;20.96;40.20;102265.22;3119863;27;115686;-58
2021/03/23 02:53:27;;;;;;;;;;;;;;;20.96;40.52;102261.56;3097281;27;117665;-57
2021/03/23 02:54:57;;;;;;;;;;;;;;;20.95;40.31;102257.91;3084257;28;115860;-59
2021/03/23 02:56:28;;;;;;;;;;;;;;;20.96;40.57;102259.59;3085160;28;116545;-58
2021/03/23 02:58:00;;;;;;;;;;;;;;;20.96;40.66;102264.38;3086360;28;114443;-58
2021/03/23 02:59:31;;;;;;;;;;;;;;;20.92;40.81;102264.09;3086709;28;115462;-58
2021/03/23 03:01:03;;;;;;;;;;;;;;;20.91;40.47;102256.78;3122760;27;115805;-57
2021/03/23 03:02:34;;;;;;;;;;;;;;;20.91;40.80;102265.22;3105647;27;115704;-59
2021/03/23 03:04:06;;;;;;;;;;;;;;;20.88;40.79;102259.31;3093742;28;115691;-57
2021/03/23 03:05:37;;;;;;;;;;;;;;;20.89;40.79;102259.03;3124310;27;115763;-58
2021/03/23 03:07:08;;;;;;;;;;;;;;;20.88;40.86;102262.13;3101723;28;113965;-59
2021/03/23 03:08:39;;;;;;;;;;;;;;;20.86;40.78;102257.63;3112428;27;113700;-58
2021/03/23 03:10:10;;;;;;;;;;;;;;;20.88;41.12;102256.50;3096373;28;114091;-59
2021/03/23 03:11:41;;;;;;;;;;;;;;;20.85;40.70;102260.69;3091684;28;114239;-58
2021/03/23 03:13:13;;;;;;;;;;;;;;;20.84;40.79;102262.69;3096403;28;113683;-58
2021/03/23 03:14:44;;;;;;;;;;;;;;;20.83;41.04;102257.34;3086935;28;114142;-59
2021/03/23 03:16:16;;;;;;;;;;;;;;;20.84;41.02;102257.06;3098297;28;113906;-58
2021/03/23 03:17:47;;;;;;;;;;;;;;;20.83;40.87;102255.38;3099683;28;113809;-59
2021/03/23 03:19:19;;;;;;;;;;;;;;;20.84;41.17;102262.69;3090857;28;114106;-58
2021/03/23 03:20:50;;;;;;;;;;;;;;;20.82;41.08;102262.09;3087818;28;113648;-58
2021/03/23 03:22:21;;;;;;;;;;;;;;;20.80;40.94;102261.53;3087733;28;114124;-57
2021/03/23 03:23:52;;;;;;;;;;;;;;;20.82;40.70;102256.50;3086485;28;114640;-58
2021/03/23 03:25:23;;;;;;;;;;;;;;;20.81;40.97;102251.97;3087785;28;113787;-58
2021/03/23 03:26:54;;;;;;;;;;;;;;;20.79;40.77;102248.63;3091478;28;114238;-60
2021/03/23 03:28:26;;;;;;;;;;;;;;;20.79;41.01;102248.63;3087609;28;115215;-59
2021/03/23 03:29:58;;;;;;;;;;;;;;;20.81;41.00;102248.31;3111989;28;115638;-60
2021/03/23 03:31:30;;;;;;;;;;;;;;;20.78;41.19;102249.75;3102826;28;115102;-58
2021/03/23 03:33:04;;;;;;;;;;;;;;;20.78;41.06;102246.94;3088375;28;113936;-58
2021/03/23 03:34:35;;;;;;;;;;;;;;;20.77;41.12;102253.66;3089039;28;114421;-59
2021/03/23 03:36:06;;;;;;;;;;;;;;;20.77;40.66;102247.19;3096796;28;115083;-58
2021/03/23 03:37:37;;;;;;;;;;;;;;;20.75;41.30;102250.31;3072312;28;115150;-58
2021/03/23 03:39:08;;;;;;;;;;;;;;;20.76;40.91;102251.13;3078801;28;115671;-57
2021/03/23 03:40:43;;;;;;;;;;;;;;;20.76;40.71;102248.31;3078282;28;115429;-60
2021/03/23 03:42:14;;;;;;;;;;;;;;;20.73;41.10;102252.53;3086646;28;115370;-58
2021/03/23 03:43:45;;;;;;;;;;;;;;;20.74;41.10;102253.38;3085089;28;115029;-57
2021/03/23 03:45:17;;;;;;;;;;;;;;;20.74;41.03;102256.19;3100632;28;115042;-60
2021/03/23 03:46:48;;;;;;;;;;;;;;;20.74;41.34;102248.63;3088494;28;115255;-59
2021/03/23 03:48:19;;;;;;;;;;;;;;;20.72;41.14;102252.81;3088998;28;115516;-58
2021/03/23 03:49:50;;;;;;;;;;;;;;;20.71;41.02;102248.34;3085186;28;116570;-58
2021/03/23 03:51:21;;;;;;;;;;;;;;;20.69;41.43;102243.00;3086994;28;115753;-58
2021/03/23 03:52:54;;;;;;;;;;;;;;;20.71;41.24;102243.56;3086055;28;115110;-60
2021/03/23 03:54:25;;;;;;;;;;;;;;;20.72;41.47;102239.63;3111174;27;115826;-58
2021/03/23 03:55:56;;;;;;;;;;;;;;;20.72;41.31;102250.84;3095877;28;115747;-59
2021/03/23 03:57:28;;;;;;;;;;;;;;;20.71;41.02;102249.19;3087020;28;116409;-60
2021/03/23 03:58:59;;;;;;;;;;;;;;;20.70;41.32;102253.09;3087546;28;115764;-58
2021/03/23 04:00:32;;;;;;;;;;;;;;;20.72;41.40;102250.84;3087454;28;116533;-59
2021/03/23 04:02:04;;;;;;;;;;;;;;;20.71;41.44;102245.53;3110263;27;115911;-58
2021/03/23 04:03:36;;;;;;;;;;;;;;;20.70;41.05;102241.88;3104529;28;115727;-58
2021/03/23 04:05:08;;;;;;;;;;;;;;;20.67;41.61;102241.59;3091326;28;115703;-57
2021/03/23 04:06:39;;;;;;;;;;;;;;;20.69;41.55;102247.75;3098538;28;115981;-58
2021/03/23 04:08:12;;;;;;;;;;;;;;;20.67;41.55;102241.59;3091150;28;115755;-59
2021/03/23 04:09:43;;;;;;;;;;;;;;;20.67;40.98;102247.22;3102111;28;116145;-58
2021/03/23 04:11:14;;;;;;;;;;;;;;;20.64;41.59;102245.78;3089297;28;114145;-59
2021/03/23 04:12:46;;;;;;;;;;;;;;;20.62;41.60;102245.22;3087182;28;114147;-57
2021/03/23 04:14:17;;;;;;;;;;;;;;;20.63;41.09;102243.25;3087096;28;113698;-58
2021/03/23 04:15:49;;;;;;;;;;;;;;;20.64;41.19;102240.16;3091180;28;113750;-60
2021/03/23 04:17:20;;;;;;;;;;;;;;;20.64;40.79;102242.97;3087122;28;114009;-58
2021/03/23 04:18:51;;;;;;;;;;;;;;;20.63;41.27;102243.25;3099709;28;113894;-57
2021/03/23 04:20:23;;;;;;;;;;;;;;;20.62;41.28;102242.44;3087665;28;113693;-60
2021/03/23 04:21:54;;;;;;;;;;;;;;;20.59;41.33;102242.97;3121319;27;113995;-60
2021/03/23 04:23:28;;;;;;;;;;;;;;;20.61;41.25;102246.34;3093928;28;114271;-58
2021/03/23 04:24:59;;;;;;;;;;;;;;;20.59;41.07;102242.97;3088175;28;114924;-60
2021/03/23 04:26:30;;;;;;;;;;;;;;;20.58;41.25;102246.88;3109193;27;113809;-60
2021/03/23 04:28:01;;;;;;;;;;;;;;;20.56;40.97;102245.47;3106611;27;113882;-60
2021/03/23 04:29:32;;;;;;;;;;;;;;;20.56;41.13;102245.47;3113605;27;113697;-57
2021/03/23 04:31:03;;;;;;;;;;;;;;;20.56;41.01;102242.69;3094654;28;113739;-59
2021/03/23 04:32:34;;;;;;;;;;;;;;;20.56;41.06;102245.47;3090323;28;113811;-59
2021/03/23 04:34:07;;;;;;;;;;;;;;;20.57;41.11;102244.38;3082332;28;116363;-59
2021/03/23 04:35:40;;;;;;;;;;;;;;;20.55;41.27;102236.22;3097410;27;114199;-59
2021/03/23 04:37:11;;;;;;;;;;;;;;;20.55;41.20;102247.44;3101650;28;114065;-59
2021/03/23 04:38:42;;;;;;;;;;;;;;;20.56;41.29;102245.47;3110627;28;115005;-58
2021/03/23 04:40:13;;;;;;;;;;;;;;;20.55;41.36;102239.03;3103400;28;115052;-58
2021/03/23 04:41:44;;;;;;;;;;;;;;;20.54;40.96;102244.91;3098027;28;114979;-60
2021/03/23 04:43:18;;;;;;;;;;;;;;;20.53;41.17;102241.28;3109863;27;115712;-58
2021/03/23 04:44:49;;;;;;;;;;;;;;;20.53;41.12;102234.81;3098562;27;115627;-58
2021/03/23 04:46:23;;;;;;;;;;;;;;;20.49;40.99;102237.31;3113982;27;115453;-59
2021/03/23 04:47:54;;;;;;;;;;;;;;;20.51;41.31;102235.09;3082964;28;115142;-61
2021/03/23 04:49:26;;;;;;;;;;;;;;;20.50;41.12;102243.78;3086374;28;115213;-59
2021/03/23 04:50:57;;;;;;;;;;;;;;;20.48;41.08;102238.47;3098358;28;115062;-59
2021/03/23 04:52:28;;;;;;;;;;;;;;;20.46;41.09;102235.06;3092449;28;115190;-59
2021/03/23 04:54:02;;;;;;;;;;;;;;;20.47;41.14;102239.56;3091497;28;114141;-60
2021/03/23 04:55:33;;;;;;;;;;;;;;;20.46;40.95;102237.88;3106377;27;115725;-59
2021/03/23 04:57:04;;;;;;;;;;;;;;;20.46;41.15;102245.44;3089920;27;115164;-59
2021/03/23 04:58:35;;;;;;;;;;;;;;;20.46;40.84;102237.03;3108089;27;115904;-60
2021/03/23 05:00:08;;;;;;;;;;;;;;;20.45;41.02;102238.13;3082177;28;115775;-58
2021/03/23 05:01:40;;;;;;;;;;;;;;;20.44;41.11;102242.09;3098703;28;114941;-59
2021/03/23 05:03:13;;;;;;;;;;;;;;;20.43;41.05;102238.44;3078844;28;116030;-60
2021/03/23 05:04:44;;;;;;;;;;;;;;;20.41;40.99;102237.84;3086879;28;117811;-59
2021/03/23 05:06:27;;;;;;;;;;;;;;;20.43;41.42;102238.44;3090785;28;116452;-60
2021/03/23 05:07:58;;;;;;;;;;;;;;;20.36;41.33;102238.69;3096738;28;117097;-60
2021/03/23 05:09:29;;;;;;;;;;;;;;;20.39;40.79;102243.78;3102786;27;116285;-58
2021/03/23 05:11:00;;;;;;;;;;;;;;;20.38;39.87;102236.47;3087602;28;116310;-59
2021/03/23 05:12:31;;;;;;;;;;;;;;;20.37;40.69;102236.72;3110725;27;116109;-59
2021/03/23 05:14:03;;;;;;;;;;;;;;;20.39;40.69;102232.53;3093783;28;115696;-60
2021/03/23 05:15:34;;;;;;;;;;;;;;;20.40;40.82;102231.41;3114072;27;116898;-58
2021/03/23 05:17:05;;;;;;;;;;;;;;;20.41;41.22;102232.25;3093778;28;113820;-60
2021/03/23 05:18:37;;;;;;;;;;;;;;;20.45;41.26;102229.72;3087057;28;113715;-60
2021/03/23 05:20:08;;;;;;;;;;;;;;;20.49;41.29;102230.88;3110978;27;114571;-57
2021/03/23 05:21:39;;;;;;;;;;;;;;;20.51;41.29;102229.47;3093012;27;113747;-59
2021/03/23 05:23:12;;;;;;;;;;;;;;;20.53;41.36;102238.47;3086904;28;113830;-59
2021/03/23 05:24:43;;;;;;;;;;;;;;;20.58;41.57;102243.25;3086272;28;115683;-59
2021/03/23 05:26:14;;;;;;;;;;;;;;;20.59;41.24;102231.72;3086831;28;114347;-60
2021/03/23 05:27:45;;;;;;;;;;;;;;;20.63;41.38;102232.84;3088813;28;114484;-58
2021/03/23 05:29:16;;;;;;;;;;;;;;;20.66;41.73;102237.94;3091474;28;113793;-58
2021/03/23 05:30:48;;;;;;;;;;;;;;;20.69;41.70;102237.38;3085785;28;113778;-58
2021/03/23 05:32:19;;;;;;;;;;;;;;;20.73;41.40;102237.66;3082042;28;114004;-59
2021/03/23 05:33:51;;;;;;;;;;;;;;;20.76;41.63;102237.09;3077758;28;113835;-60
2021/03/23 05:35:22;;;;;;;;;;;;;;;20.79;41.75;102240.19;3087233;28;113644;-59
2021/03/23 05:36:53;;;;;;;;;;;;;;;20.83;41.63;102234.88;3101970;28;113787;-59
2021/03/23 05:38:25;;;;;;;;;;;;;;;20.86;41.70;102237.09;3089746;28;115087;-60
2021/03/23 05:39:56;;;;;;;;;;;;;;;20.90;41.63;102237.38;3106849;28;116378;-58
2021/03/23 05:41:37;;;;;;;;;;;;;;;20.94;41.61;102232.91;3093373;28;115053;-60
2021/03/23 05:43:17;;;;;;;;;;;;;;;20.99;41.75;102241.31;3110593;27;115181;-60
2021/03/23 05:44:49;;;;;;;;;;;;;;;21.02;41.51;102241.63;3087073;28;115073;-60
2021/03/23 05:46:31;;;;;;;;;;;;;;;21.06;41.12;102239.94;3085662;28;115667;-60
2021/03/23 05:48:07;;;;;;;;;;;;;;;21.11;40.88;102239.09;3086138;28;115032;-58
2021/03/23 05:49:40;;;;;;;;;;;;;;;21.15;41.19;102245.88;3120062;27;114941;-59
2021/03/23 05:51:12;;;;;;;;;;;;;;;21.19;41.03;102242.22;3104158;27;115569;-59
2021/03/23 05:52:55;;;;;;;;;;;;;;;21.24;40.87;102238.56;3092435;28;114041;-57
2021/03/23 05:54:34;;;;;;;;;;;;;;;21.28;40.71;102240.53;3108815;27;115093;-59
2021/03/23 05:56:05;;;;;;;;;;;;;;;21.34;40.66;102237.72;3096535;28;115129;-60
2021/03/23 05:57:41;;;;;;;;;;;;;;;21.38;41.13;102238.84;3097666;27;114416;-60
2021/03/23 05:59:14;;;;;;;;;;;;;;;21.43;40.87;102245.31;3104677;28;115304;-60
2021/03/23 06:00:56;;;;;;;;;;;;;;;21.46;40.44;102239.09;3095330;28;115989;-59
2021/03/23 06:02:37;;;;;;;;;;;;;;;21.51;40.28;102238.25;3088501;28;116187;-58
2021/03/23 06:04:18;;;;;;;;;;;;;;;21.55;40.61;102234.59;3085984;28;118416;-58
2021/03/23 06:06:01;;;;;;;;;;;;;;;21.60;40.52;102242.16;3103668;28;115880;-58
2021/03/23 06:07:36;;;;;;;;;;;;;;;21.64;40.92;102238.50;3094589;28;115881;-58
2021/03/23 06:09:11;;;;;;;;;;;;;;;21.68;40.47;102234.00;3090613;28;114622;-58
2021/03/23 06:10:43;;;;;;;;;;;;;;;21.72;40.18;102237.91;3090879;28;116416;-60
2021/03/23 06:12:14;;;;;;;;;;;;;;;21.76;39.97;102234.56;3102445;28;115630;-58
2021/03/23 06:13:53;;;;;;;;;;;;;;;21.80;40.22;102235.66;3089014;28;115980;-58
2021/03/23 06:15:31;;;;;;;;;;;;;;;21.84;39.90;102236.78;3110044;27;115749;-59
2021/03/23 06:17:07;;;;;;;;;;;;;;;21.88;40.05;102246.31;3090468;28;115780;-59
2021/03/23 06:18:42;;;;;;;;;;;;;;;21.91;39.68;102242.94;3106097;27;114969;-58
2021/03/23 06:20:17;;;;;;;;;;;;;;;21.94;39.94;102237.59;3084399;28;117235;-60
2021/03/23 06:21:57;;;;;;;;;;;;;;;21.99;39.77;102248.00;3084296;28;116117;-60
2021/03/23 06:23:37;;;;;;;;;;;;;;;22.01;39.97;102243.78;3112614;27;116772;-58
2021/03/23 06:25:18;;;;;;;;;;;;;;;22.06;39.71;102243.75;3087990;28;113724;-59
2021/03/23 06:26:59;;;;;;;;;;;;;;;22.09;39.60;102243.19;3088340;28;114608;-58
2021/03/23 06:28:37;;;;;;;;;;;;;;;22.13;39.53;102246.25;3087548;28;113834;-58
2021/03/23 06:30:17;;;;;;;;;;;;;;;22.18;39.52;102251.88;3083605;28;113776;-59
2021/03/23 06:31:49;;;;;;;;;;;;;;;22.21;39.36;102253.28;3097911;28;113820;-59
2021/03/23 06:33:21;;;;;;;;;;;;;;;22.24;39.21;102250.72;3078771;28;113999;-60
2021/03/23 06:34:55;;;;;;;;;;;;;;;22.28;39.22;102256.63;3100626;27;114210;-60
2021/03/23 06:36:28;;;;;;;;;;;;;;;22.29;39.11;102253.50;3094439;28;114146;-60
2021/03/23 06:38:01;;;;;;;;;;;;;;;22.33;39.49;102254.63;3080429;28;114157;-59
2021/03/23 06:39:32;;;;;;;;;;;;;;;22.36;39.70;102259.66;3081166;28;115792;-59
2021/03/23 06:41:13;;;;;;;;;;;;;;;22.39;39.12;102253.47;3086017;28;114025;-59
2021/03/23 06:42:45;;;;;;;;;;;;;;;22.43;39.20;102256.53;3086019;28;114192;-59
2021/03/23 06:44:17;;;;;;;;;;;;;;;22.46;39.21;102261.59;3088548;28;113944;-60
2021/03/23 06:46:00;;;;;;;;;;;;;;;22.48;39.17;102248.91;3087880;28;114335;-58
2021/03/23 06:47:32;;;;;;;;;;;;;;;22.51;39.18;102256.78;3111008;27;115035;-59
2021/03/23 06:49:04;;;;;;;;;;;;;;;22.54;39.18;102250.56;3100632;28;114940;-59
2021/03/23 06:50:36;;;;;;;;;;;;;;;22.57;39.26;102250.00;3087980;28;115562;-58
2021/03/23 06:52:17;;;;;;;;;;;;;;;22.58;38.70;102251.66;3087428;28;116040;-59
2021/03/23 06:53:48;;;;;;;;;;;;;;;22.63;38.80;102256.41;3076146;28;115349;-57
2021/03/23 06:55:19;;;;;;;;;;;;;;;22.67;38.88;102251.06;3086905;28;114980;-59
2021/03/23 06:57:00;;;;;;;;;;;;;;;22.68;38.88;102256.38;3087847;28;114994;-60
2021/03/23 06:58:32;;;;;;;;;;;;;;;22.72;39.26;102254.69;3087978;28;114670;-57
2021/03/23 07:00:07;;;;;;;;;;;;;;;22.75;39.41;102262.59;3097709;28;114792;-59
2021/03/23 07:01:39;;;;;;;;;;;;;;;22.77;39.27;102263.13;3082011;28;115454;-57
2021/03/23 07:03:13;;;;;;;;;;;;;;;22.81;39.25;102264.22;3086578;28;116419;-61
2021/03/23 07:04:45;;;;;;;;;;;;;;;22.83;39.37;102261.13;3091238;28;115338;-59
2021/03/23 07:06:17;;;;;;;;;;;;;;;22.86;39.28;102260.53;3092662;28;115012;-58
2021/03/23 07:08:04;;;;;;;;;;;;;;;22.90;39.04;102253.16;3096788;28;115065;-58
2021/03/23 07:09:44;;;;;;;;;;;;;;;22.92;39.25;102259.38;3089629;28;114690;-59
2021/03/23 07:11:15;;;;;;;;;;;;;;;22.94;39.65;102266.38;3099196;28;115749;-59
2021/03/23 07:12:46;;;;;;;;;;;;;;;22.98;39.55;102255.38;3115753;27;115607;-59
2021/03/23 07:14:27;;;;;;;;;;;;;;;23.00;39.14;102258.75;3095308;28;116487;-59
2021/03/23 07:15:58;;;;;;;;;;;;;;;23.01;39.49;102261.28;3092778;28;115851;-57
2021/03/23 07:17:29;;;;;;;;;;;;;;;23.04;39.26;102257.84;3091847;28;116046;-58
2021/03/23 07:19:11;;;;;;;;;;;;;;;23.08;39.23;102262.94;3108958;27;115710;-59
2021/03/23 07:20:44;;;;;;;;;;;;;;;23.10;39.38;102267.13;3092069;27;114733;-59
2021/03/23 07:22:18;;;;;;;;;;;;;;;23.12;38.94;102269.66;3118848;27;116091;-58
2021/03/23 07:23:59;;;;;;;;;;;;;;;23.13;39.36;102274.97;3105445;28;115774;-60
2021/03/23 07:25:33;;;;;;;;;;;;;;;23.14;39.39;102273.84;3098498;28;115738;-59
2021/03/23 07:27:06;;;;;;;;;;;;;;;23.16;39.18;102277.25;3082893;28;116594;-60
2021/03/23 07:28:38;;;;;;;;;;;;;;;23.19;39.05;102281.44;3082663;28;115891;-59
2021/03/23 07:30:19;;;;;;;;;;;;;;;23.19;39.00;102275.78;3090186;28;116444;-58
2021/03/23 07:31:59;;;;;;;;;;;;;;;23.21;39.10;102276.34;3110817;28;113861;-58
2021/03/23 07:33:40;;;;;;;;;;;;;;;23.22;38.89;102278.84;3092180;28;113836;-59
2021/03/23 07:35:14;;;;;;;;;;;;;;;23.23;38.92;102283.38;3087236;28;113993;-58
2021/03/23 07:36:51;;;;;;;;;;;;;;;23.22;38.93;102287.31;3081112;28;114129;-58
2021/03/23 07:38:45;;;;;;;;;;;;;;;23.24;39.34;102287.03;3110303;27;113866;-59
2021/03/23 07:40:21;;;;;;;;;;;;;;;23.22;39.08;102281.69;3090681;27;114005;-59
2021/03/23 07:41:56;;;;;;;;;;;;;;;23.23;39.27;102286.19;3093878;28;113973;-60
2021/03/23 07:43:30;;;;;;;;;;;;;;;23.23;39.07;102288.16;3096240;28;113881;-58
2021/03/23 07:45:06;;;;;;;;;;;;;;;23.24;39.36;102285.06;3092755;28;114075;-57
2021/03/23 07:46:42;;;;;;;;;;;;;;;23.23;39.22;102283.38;3096432;28;114265;-58
2021/03/23 07:48:17;;;;;;;;;;;;;;;23.24;39.45;102289.84;3093649;28;113918;-59
2021/03/23 07:49:55;;;;;;;;;;;;;;;23.15;38.65;102289.66;3092696;28;114104;-57
2021/03/23 07:51:36;;;;;;;;;;;;;;;23.04;38.30;102297.31;3085925;28;114054;-58
2021/03/23 07:53:15;;;;;;;;;;;;;;;22.94;37.67;102296.56;3086788;28;114306;-58